Time;durP1;ratioP1;P1;durP2;ratioP2;P2;SDS_P1;SDS_P2;PMS_P1;PMS_P2;Temp;Humidity;BMP_temperature;BMP_pressure;BME280_temperature;BME280_humidity;BME280_pressure;Samples;Min_cycle;Max_cycle;Signal;HPM_P1;HPM_P2
2021/10/15 00:02:30;;;;;;;36.25;19.32;;;;;;;3.06;77.71;100220.82;1615819;86;21042;-75
2021/10/15 00:04:58;;;;;;;32.30;19.48;;;;;;;3.06;77.83;100222.71;1602077;88;21516;-74
2021/10/15 00:07:27;;;;;;;29.32;17.15;;;;;;;3.06;78.08;100217.27;1619559;88;21099;-76
2021/10/15 00:10:04;;;;;;;29.10;17.23;;;;;;;3.08;78.29;100219.20;1617739;87;21015;-75
2021/10/15 00:12:33;;;;;;;31.27;19.05;;;;;;;3.09;78.38;100218.14;1619829;87;21512;-76
2021/10/15 00:15:05;;;;;;;27.98;17.90;;;;;;;3.08;78.33;100210.51;1618728;88;21262;-73
2021/10/15 00:17:39;;;;;;;29.40;17.62;;;;;;;3.02;78.34;100216.97;1609365;88;21615;-74
2021/10/15 00:20:13;;;;;;;34.23;18.40;;;;;;;2.96;78.47;100217.43;1612490;88;21116;-75
2021/10/15 00:22:43;;;;;;;30.32;18.32;;;;;;;2.89;78.55;100208.09;1607843;88;21063;-75
2021/10/15 00:25:14;;;;;;;27.20;17.30;;;;;;;2.81;78.63;100209.88;1619675;87;21052;-76
2021/10/15 00:27:51;;;;;;;28.62;17.05;;;;;;;2.74;78.74;100203.78;1604560;88;21011;-74
2021/10/15 00:30:23;;;;;;;30.52;18.27;;;;;;;2.74;78.84;100202.42;1609738;88;21050;-75
2021/10/15 00:32:57;;;;;;;30.75;18.90;;;;;;;2.75;78.83;100203.53;1605677;88;21071;-76
2021/10/15 00:35:24;;;;;;;33.58;17.23;;;;;;;2.78;79.00;100200.86;1591507;88;21009;-73
2021/10/15 00:37:58;;;;;;;31.50;17.73;;;;;;;2.80;79.06;100191.36;1609349;88;21072;-75
2021/10/15 00:40:26;;;;;;;27.20;17.17;;;;;;;2.84;79.14;100199.84;1619777;85;21026;-73
2021/10/15 00:42:56;;;;;;;32.70;18.15;;;;;;;2.88;79.33;100202.34;1610486;88;21027;-76
2021/10/15 00:45:24;;;;;;;26.90;16.95;;;;;;;2.90;79.58;100202.91;1608329;88;22166;-75
2021/10/15 00:47:51;;;;;;;29.12;16.87;;;;;;;2.96;79.74;100202.45;1627281;86;21079;-75
2021/10/15 00:50:25;;;;;;;28.62;16.93;;;;;;;3.00;79.83;100207.66;1617117;86;21069;-75
2021/10/15 00:52:54;;;;;;;28.02;18.12;;;;;;;3.04;79.88;100209.34;1603693;89;21044;-74
2021/10/15 00:55:32;;;;;;;34.83;16.50;;;;;;;3.03;79.70;100199.02;1626008;87;21012;-74
2021/10/15 00:58:07;;;;;;;28.38;17.92;;;;;;;3.02;79.43;100208.80;1586682;88;21074;-74
2021/10/15 01:00:36;;;;;;;27.67;17.20;;;;;;;2.99;79.34;100202.48;1581565;88;21028;-74
2021/10/15 01:03:14;;;;;;;32.95;17.40;;;;;;;2.99;79.45;100201.95;1644304;85;21043;-74
2021/10/15 01:05:43;;;;;;;30.68;18.15;;;;;;;2.99;79.50;100199.22;1646345;87;20992;-73
2021/10/15 01:08:16;;;;;;;38.65;20.32;;;;;;;2.99;79.40;100194.30;1626624;87;21094;-74
2021/10/15 01:10:44;;;;;;;32.05;18.37;;;;;;;2.98;79.31;100196.23;1646737;86;21771;-74
2021/10/15 01:13:18;;;;;;;33.88;18.65;;;;;;;2.98;79.31;100197.59;1644388;87;21061;-75
2021/10/15 01:15:48;;;;;;;;;;;;;;;2.98;79.39;100195.39;1649109;87;21068;-75
2021/10/15 01:18:16;;;;;;;37.90;19.25;;;;;;;2.99;79.49;100199.75;1647286;85;20851;-76
2021/10/15 01:20:48;;;;;;;40.08;19.62;;;;;;;2.98;79.57;100204.92;1626813;87;21041;-75
2021/10/15 01:23:22;;;;;;;39.92;21.25;;;;;;;2.97;79.72;100195.92;1638217;86;21051;-76
2021/10/15 01:25:55;;;;;;;34.10;19.32;;;;;;;2.97;79.76;100195.12;1645478;87;21090;-75
2021/10/15 01:28:31;;;;;;;28.02;17.07;;;;;;;2.97;79.76;100198.64;1643422;87;21047;-74
2021/10/15 01:30:58;;;;;;;29.45;17.32;;;;;;;2.97;79.71;100196.48;1626510;85;21023;-74
2021/10/15 01:33:25;;;;;;;37.60;21.30;;;;;;;2.95;79.48;100195.91;1645600;87;21008;-74
2021/10/15 01:36:01;;;;;;;55.25;29.37;;;;;;;2.93;79.27;100189.35;1645786;87;21182;-74
2021/10/15 01:38:27;;;;;;;59.00;30.05;;;;;;;2.90;79.18;100189.30;1634818;86;21047;-75
2021/10/15 01:40:58;;;;;;;51.10;26.27;;;;;;;2.88;79.22;100190.64;1638947;87;21102;-75
2021/10/15 01:43:29;;;;;;;51.00;24.95;;;;;;;2.86;79.19;100188.17;1645740;87;21032;-74
2021/10/15 01:46:00;;;;;;;38.55;22.20;;;;;;;2.84;79.12;100193.05;1629842;86;21088;-76
2021/10/15 01:48:33;;;;;;;36.90;20.43;;;;;;;2.82;79.00;100189.73;1645287;86;21084;-75
2021/10/15 01:51:01;;;;;;;35.33;19.35;;;;;;;2.80;78.94;100186.44;1671038;84;21062;-75
2021/10/15 01:53:31;;;;;;;32.58;19.32;;;;;;;2.77;79.01;100191.03;1671224;85;21129;-75
2021/10/15 01:56:03;;;;;;;35.50;19.23;;;;;;;2.76;79.11;100194.28;1671352;85;21063;-75
2021/10/15 01:58:29;;;;;;;39.08;19.57;;;;;;;2.76;79.32;100194.28;1671559;84;21073;-75
2021/10/15 02:00:58;;;;;;;40.30;19.62;;;;;;;2.78;79.55;100196.78;1671263;85;21011;-75
2021/10/15 02:03:28;;;;;;;34.60;18.57;;;;;;;2.82;79.75;100199.80;1671376;85;21145;-75
2021/10/15 02:05:57;;;;;;;34.48;18.60;;;;;;;2.82;79.81;100197.91;1666823;85;21101;-76
2021/10/15 02:08:29;;;;;;;34.85;19.45;;;;;;;2.82;79.75;100195.19;1671255;85;21038;-74
2021/10/15 02:11:01;;;;;;;31.10;17.32;;;;;;;2.80;79.62;100201.41;1634925;86;21045;-75
2021/10/15 02:13:30;;;;;;;35.63;19.80;;;;;;;2.72;79.44;100200.48;1638796;87;21112;-74
2021/10/15 02:15:59;;;;;;;33.67;19.42;;;;;;;2.66;79.50;100203.13;1642097;86;21023;-75
2021/10/15 02:18:37;;;;;;;37.55;20.30;;;;;;;2.65;79.53;100195.22;1659268;85;21095;-75
2021/10/15 02:21:07;;;;;;;31.17;17.30;;;;;;;2.65;79.53;100193.86;1659275;86;21097;-75
2021/10/15 02:23:35;;;;;;;30.30;18.55;;;;;;;2.63;79.38;100195.47;1654544;86;21042;-74
2021/10/15 02:26:08;;;;;;;32.55;17.87;;;;;;;2.59;79.13;100200.31;1641083;86;21699;-76
2021/10/15 02:28:34;;;;;;;32.53;19.12;;;;;;;2.53;79.07;100204.31;1659257;86;21043;-75
2021/10/15 02:31:02;;;;;;;33.48;19.20;;;;;;;2.42;78.96;100206.61;1659225;86;21546;-75
2021/10/15 02:33:29;;;;;;;35.73;19.95;;;;;;;2.28;79.05;100199.31;1659166;85;21053;-73
2021/10/15 02:36:02;;;;;;;27.97;16.20;;;;;;;2.19;79.33;100197.53;1648634;85;21094;-75
2021/10/15 02:38:28;;;;;;;36.20;18.52;;;;;;;2.15;79.47;100193.67;1671311;85;21096;-75
2021/10/15 02:40:59;;;;;;;37.78;20.08;;;;;;;2.10;79.43;100191.67;1659321;85;21098;-75
2021/10/15 02:43:26;;;;;;;32.40;19.02;;;;;;;2.09;79.56;100190.56;1671620;84;21066;-75
2021/10/15 02:45:57;;;;;;;36.60;20.75;;;;;;;2.11;79.61;100185.19;1647934;85;21486;-74
2021/10/15 02:48:33;;;;;;;37.73;18.55;;;;;;;2.14;79.49;100183.33;1652926;85;21066;-74
2021/10/15 02:51:00;;;;;;;33.15;19.77;;;;;;;2.15;79.27;100186.88;1637489;86;21170;-75
2021/10/15 02:53:27;;;;;;;34.67;20.52;;;;;;;2.13;79.21;100184.38;1653698;85;21063;-75
2021/10/15 02:58:39;;;;;;;37.50;20.82;;;;;;;2.15;79.19;100186.88;1650757;86;21527;-74
2021/10/15 03:01:14;;;;;;;38.65;21.50;;;;;;;2.16;79.19;100189.34;1651296;85;20999;-74
2021/10/15 03:03:42;;;;;;;32.58;19.52;;;;;;;2.17;79.39;100186.91;1642613;86;21317;-75
2021/10/15 03:06:23;;;;;;;35.95;21.10;;;;;;;2.18;79.43;100187.73;1653700;85;21593;-75
2021/10/15 03:08:53;;;;;;;37.08;20.82;;;;;;;2.13;79.08;100187.09;1622064;88;21582;-74
2021/10/15 03:11:20;;;;;;;34.20;20.40;;;;;;;2.03;79.20;100187.77;1617045;88;21039;-75
2021/10/15 03:13:47;;;;;;;36.25;19.77;;;;;;;2.00;79.37;100183.34;1653943;85;21004;-76
2021/10/15 03:16:39;;;;;;;31.82;19.62;;;;;;;2.00;79.44;100180.10;1650691;86;21066;-76
2021/10/15 03:19:17;;;;;;;35.17;19.55;;;;;;;1.99;79.27;100175.75;1641049;84;21058;-73
2021/10/15 03:21:52;;;;;;;40.85;20.95;;;;;;;1.92;79.13;100185.42;1651715;86;21072;-75
2021/10/15 03:24:18;;;;;;;41.90;21.50;;;;;;;1.88;78.95;100186.14;1650067;86;21012;-74
2021/10/15 03:26:47;;;;;;;54.55;23.70;;;;;;;1.84;79.02;100187.19;1654225;86;21015;-74
2021/10/15 03:29:13;;;;;;;52.08;25.43;;;;;;;1.84;79.14;100188.55;1633277;86;21047;-74
2021/10/15 03:31:50;;;;;;;43.70;23.65;;;;;;;1.86;79.34;100193.18;1650960;85;21067;-75
2021/10/15 03:34:35;;;;;;;44.95;25.10;;;;;;;1.90;79.63;100186.72;1649426;86;21044;-75
2021/10/15 03:37:06;;;;;;;45.73;23.65;;;;;;;1.96;79.96;100186.28;1648616;86;21162;-75
2021/10/15 03:39:37;;;;;;;45.63;24.25;;;;;;;1.99;80.11;100174.39;1649779;86;21075;-75
2021/10/15 03:42:05;;;;;;;38.45;21.35;;;;;;;2.03;80.05;100174.17;1654136;86;21235;-74
2021/10/15 03:44:44;;;;;;;44.87;23.13;;;;;;;2.00;79.89;100177.91;1639036;86;21018;-74
2021/10/15 03:47:14;;;;;;;43.15;24.12;;;;;;;1.90;79.94;100185.36;1654135;84;21369;-74
2021/10/15 03:49:49;;;;;;;49.10;26.93;;;;;;;1.87;80.27;100188.58;1651081;85;21023;-74
2021/10/15 03:52:27;;;;;;;41.60;23.90;;;;;;;1.87;80.30;100188.05;1629286;86;21584;-75
2021/10/15 03:55:02;;;;;;;41.23;23.30;;;;;;;1.86;80.19;100193.18;1622003;86;21064;-74
2021/10/15 03:57:31;;;;;;;46.48;24.40;;;;;;;1.86;80.07;100194.54;1623899;86;21113;-75
2021/10/15 04:00:03;;;;;;;40.95;21.87;;;;;;;1.82;79.88;100187.95;1622627;87;21076;-74
2021/10/15 04:05:52;;;;;;;;;;;;;;;1.79;79.86;100187.09;1622755;87;21023;-75
2021/10/15 04:08:35;;;;;;;43.65;23.65;;;;;;;1.81;79.88;100194.45;1622519;87;21169;-75
2021/10/15 04:11:05;;;;;;;40.23;23.15;;;;;;;1.79;79.63;100191.97;1626846;87;21077;-75
2021/10/15 04:13:33;;;;;;;45.10;24.77;;;;;;;1.70;79.90;100196.17;1624203;87;21642;-76
2021/10/15 04:16:04;;;;;;;42.60;24.00;;;;;;;1.73;80.16;100198.40;1629319;86;21138;-76
2021/10/15 04:18:38;;;;;;;49.77;24.85;;;;;;;1.79;80.31;100196.61;1624087;85;21022;-74
2021/10/15 04:21:06;;;;;;;50.43;26.37;;;;;;;1.85;80.66;100191.55;1627176;87;21183;-74
2021/10/15 04:23:39;;;;;;;45.83;23.95;;;;;;;1.93;80.84;100197.94;1623941;87;21272;-76
2021/10/15 04:26:07;;;;;;;48.13;25.08;;;;;;;2.01;80.85;100202.16;1625884;87;21519;-75
2021/10/15 04:28:37;;;;;;;43.20;22.60;;;;;;;2.04;80.72;100204.38;1627491;87;21038;-74
2021/10/15 04:31:08;;;;;;;39.83;22.70;;;;;;;2.01;80.71;100202.16;1630768;87;21060;-74
2021/10/15 04:33:43;;;;;;;35.73;21.82;;;;;;;2.01;80.97;100198.61;1620223;86;21038;-76
2021/10/15 04:36:16;;;;;;;38.23;21.97;;;;;;;2.08;81.12;100204.72;1623038;87;21073;-76
2021/10/15 04:38:57;;;;;;;34.40;18.40;;;;;;;2.10;81.14;100196.31;1625339;87;21030;-75
2021/10/15 04:41:41;;;;;;;48.28;24.32;;;;;;;2.10;81.29;100190.31;1625443;87;21060;-76
2021/10/15 04:44:17;;;;;;;42.20;23.22;;;;;;;2.13;81.45;100191.17;1581901;89;21087;-75
2021/10/15 04:46:49;;;;;;;43.45;23.55;;;;;;;2.14;81.55;100198.28;1600947;87;21110;-76
2021/10/15 04:49:20;;;;;;;42.95;23.00;;;;;;;2.21;81.75;100198.12;1581487;88;21038;-76
2021/10/15 04:51:50;;;;;;;;;;;;;;;2.29;81.79;100200.95;1593315;88;21077;-76
2021/10/15 04:54:19;;;;;;;47.70;24.32;;;;;;;2.38;81.88;100211.71;1620007;86;20640;-75
2021/10/15 04:56:54;;;;;;;39.10;22.17;;;;;;;2.45;81.92;100209.34;1614688;88;21012;-76
2021/10/15 04:59:22;;;;;;;39.03;23.45;;;;;;;2.53;82.03;100208.40;1616518;88;21185;-75
2021/10/15 05:01:52;;;;;;;34.27;19.82;;;;;;;2.61;82.10;100211.78;1619794;87;21048;-76
2021/10/15 05:04:21;;;;;;;38.73;23.32;;;;;;;2.62;81.93;100214.25;1616257;88;21119;-77
2021/10/15 05:06:50;;;;;;;41.80;23.70;;;;;;;2.63;81.99;100219.13;1599594;88;21528;-75
2021/10/15 05:09:33;;;;;;;43.38;25.05;;;;;;;2.67;82.15;100212.96;1619744;87;21079;-75
2021/10/15 05:12:17;;;;;;;41.18;23.80;;;;;;;2.73;82.20;100223.37;1617874;88;21041;-76
2021/10/15 05:14:52;;;;;;;41.73;24.30;;;;;;;2.81;82.19;100218.05;1617465;88;21063;-75
2021/10/15 05:17:31;;;;;;;40.58;22.80;;;;;;;2.86;82.22;100216.76;1618224;87;21123;-75
2021/10/15 05:20:14;;;;;;;48.08;24.12;;;;;;;2.95;82.36;100217.13;1614299;88;21009;-74
2021/10/15 05:22:49;;;;;;;41.05;24.65;;;;;;;3.04;82.55;100216.98;1616390;88;21020;-74
2021/10/15 05:25:17;;;;;;;40.25;23.47;;;;;;;3.13;82.57;100216.02;1619839;88;21107;-74
2021/10/15 05:27:51;;;;;;;45.08;24.30;;;;;;;3.22;82.51;100221.85;1599349;88;21028;-75
2021/10/15 05:30:22;;;;;;;37.35;23.95;;;;;;;3.28;82.41;100224.91;1618631;88;21009;-73
2021/10/15 05:32:54;;;;;;;42.53;23.98;;;;;;;3.35;82.38;100223.89;1619984;88;21623;-74
2021/10/15 05:35:26;;;;;;;41.70;24.50;;;;;;;3.40;82.39;100224.78;1613390;88;21048;-74
2021/10/15 05:37:58;;;;;;;36.93;22.90;;;;;;;3.46;82.41;100228.93;1615604;88;21082;-74
2021/10/15 05:40:32;;;;;;;40.58;23.65;;;;;;;3.51;82.51;100232.52;1600130;88;21040;-74
2021/10/15 05:43:03;;;;;;;40.20;23.50;;;;;;;3.59;82.51;100233.98;1615462;88;21016;-73
2021/10/15 05:45:36;;;;;;;44.98;23.30;;;;;;;3.64;82.40;100232.68;1619774;88;21084;-74
2021/10/15 05:48:07;;;;;;;42.85;24.45;;;;;;;3.71;82.51;100225.66;1617340;88;21227;-75
2021/10/15 05:50:36;;;;;;;38.10;21.12;;;;;;;3.79;82.58;100224.36;1618990;86;21182;-75
2021/10/15 05:53:26;;;;;;;37.10;22.95;;;;;;;3.90;82.60;100222.58;1602899;88;21600;-73
2021/10/15 05:59:03;;;;;;;45.92;25.20;;;;;;;4.04;82.48;100218.06;1582326;89;21083;-75
2021/10/15 06:01:32;;;;;;;41.15;23.42;;;;;;;4.12;82.44;100229.86;1602876;87;21611;-75
2021/10/15 06:07:51;;;;;;;40.25;22.62;;;;;;;4.25;82.06;100234.05;1605660;89;21100;-75
2021/10/15 06:14:56;;;;;;;33.10;21.57;;;;;;;4.34;81.76;100236.59;1551819;86;21103;-74
2021/10/15 06:17:26;;;;;;;30.80;19.27;;;;;;;4.38;81.85;100235.54;1631395;86;21539;-75
2021/10/15 06:19:58;;;;;;;33.78;21.00;;;;;;;4.43;81.82;100234.22;1632557;86;21130;-76
2021/10/15 06:22:35;;;;;;;38.88;23.18;;;;;;;4.47;81.80;100234.52;1648783;85;21059;-76
2021/10/15 06:25:06;;;;;;;41.85;23.52;;;;;;;4.54;81.54;100232.37;1638764;86;21106;-75
2021/10/15 06:27:46;;;;;;;38.17;22.82;;;;;;;4.57;81.33;100235.93;1632880;87;21535;-77
2021/10/15 06:30:16;;;;;;;39.58;22.22;;;;;;;4.64;81.43;100232.97;1650510;86;21074;-76
2021/10/15 06:32:45;;;;;;;37.33;23.47;;;;;;;4.75;81.34;100230.61;1647723;86;21061;-77
2021/10/15 06:35:14;;;;;;;39.50;23.65;;;;;;;4.88;81.28;100231.20;1651793;86;21611;-77
2021/10/15 06:37:47;;;;;;;36.93;21.55;;;;;;;5.00;80.90;100236.47;1629167;86;21055;-77
2021/10/15 06:40:31;;;;;;;37.33;23.22;;;;;;;5.10;80.72;100236.52;1613728;88;21114;-76
2021/10/15 06:43:05;;;;;;;37.73;21.77;;;;;;;5.22;80.51;100237.67;1611406;87;21362;-76
2021/10/15 06:45:32;;;;;;;37.98;22.35;;;;;;;5.35;80.38;100237.74;1614826;87;21096;-76
2021/10/15 06:48:10;;;;;;;43.28;23.62;;;;;;;5.48;80.22;100242.42;1583895;88;21311;-77
2021/10/15 06:50:47;;;;;;;38.60;23.77;;;;;;;5.60;80.05;100229.34;1610142;87;21090;-77
2021/10/15 06:53:30;;;;;;;31.90;20.52;;;;;;;5.75;79.63;100224.98;1610500;88;21119;-78
2021/10/15 06:55:59;;;;;;;32.53;20.40;;;;;;;5.83;79.43;100229.92;1586641;88;21051;-76
2021/10/15 06:58:28;;;;;;;37.95;22.52;;;;;;;5.92;79.36;100232.95;1614851;87;21039;-76
2021/10/15 07:00:56;;;;;;;40.43;22.67;;;;;;;6.05;79.38;100226.18;1615273;88;21047;-76
2021/10/15 07:03:26;;;;;;;33.95;20.97;;;;;;;6.20;78.73;100225.90;1586487;88;21607;-75
2021/10/15 07:06:00;;;;;;;38.73;23.77;;;;;;;6.31;78.31;100231.64;1615090;88;21089;-77
2021/10/15 07:08:28;;;;;;;40.85;24.55;;;;;;;6.40;77.89;100228.35;1610504;87;21551;-76
2021/10/15 07:10:55;;;;;;;38.63;20.72;;;;;;;6.48;77.73;100229.73;1614876;88;21098;-75
2021/10/15 07:13:42;;;;;;;39.00;23.62;;;;;;;6.56;77.29;100223.70;1588863;88;21118;-75
2021/10/15 07:16:13;;;;;;;40.38;23.52;;;;;;;6.65;76.85;100223.39;1609276;88;21063;-75
2021/10/15 07:18:45;;;;;;;34.63;20.95;;;;;;;6.78;76.94;100221.19;1612750;88;21070;-76
2021/10/15 07:21:19;;;;;;;33.58;19.85;;;;;;;6.90;76.38;100231.30;1615186;88;21071;-76
2021/10/15 07:23:51;;;;;;;34.30;20.77;;;;;;;7.03;75.98;100228.52;1583471;88;21072;-76
2021/10/15 07:26:18;;;;;;;36.83;21.55;;;;;;;7.15;75.54;100230.95;1614694;86;21047;-76
2021/10/15 07:28:49;;;;;;;32.25;20.88;;;;;;;7.27;74.81;100226.52;1614772;88;21125;-75
2021/10/15 07:31:23;;;;;;;33.85;20.52;;;;;;;7.38;74.51;100231.96;1578535;88;21075;-76
2021/10/15 07:33:56;;;;;;;32.48;17.50;;;;;;;7.51;74.43;100229.98;1614876;88;21580;-76
2021/10/15 07:36:41;;;;;;;31.30;19.23;;;;;;;7.65;73.73;100225.24;1610068;87;21414;-76
2021/10/15 07:39:18;;;;;;;28.32;18.62;;;;;;;7.79;72.21;100220.78;1600298;88;21559;-76
2021/10/15 07:42:03;;;;;;;28.87;17.12;;;;;;;7.91;71.28;100223.72;1612823;88;21083;-77
2021/10/15 07:44:35;;;;;;;30.12;19.62;;;;;;;8.02;70.30;100225.83;1613014;88;21034;-76
2021/10/15 07:47:01;;;;;;;26.90;18.23;;;;;;;8.12;69.77;100218.09;1615286;88;21651;-74
2021/10/15 07:49:41;;;;;;;29.80;17.92;;;;;;;8.23;69.38;100216.89;1614701;88;21067;-74
2021/10/15 07:52:09;;;;;;;34.43;16.85;;;;;;;8.33;68.67;100209.66;1605369;87;21066;-75
2021/10/15 07:54:39;;;;;;;28.87;17.07;;;;;;;8.44;68.37;100207.66;1594772;88;21126;-75
2021/10/15 07:57:06;;;;;;;30.32;17.50;;;;;;;8.53;67.60;100209.48;1619177;88;21086;-75
2021/10/15 07:59:35;;;;;;;25.50;16.52;;;;;;;8.65;67.36;100216.53;1622380;88;22042;-75
2021/10/15 08:02:11;;;;;;;32.70;17.62;;;;;;;8.74;66.58;100209.31;1621563;88;21643;-76
2021/10/15 08:04:59;;;;;;;27.98;16.82;;;;;;;8.87;66.08;100205.62;1622460;87;21594;-77
2021/10/15 08:07:27;;;;;;;23.12;13.85;;;;;;;9.03;65.63;100209.55;1619206;88;21094;-75
2021/10/15 08:09:56;;;;;;;23.35;15.50;;;;;;;9.19;64.82;100211.56;1622369;87;21027;-75
2021/10/15 08:12:30;;;;;;;23.98;13.53;;;;;;;9.30;64.23;100207.56;1618935;88;21050;-76
2021/10/15 08:14:59;;;;;;;27.17;15.93;;;;;;;9.39;63.43;100207.73;1621873;88;21074;-74
2021/10/15 08:17:28;;;;;;;22.93;15.03;;;;;;;9.49;62.82;100213.10;1621912;88;21169;-75
2021/10/15 08:20:09;;;;;;;29.00;16.25;;;;;;;9.56;62.78;100205.03;1622363;88;21034;-75
2021/10/15 08:22:40;;;;;;;25.55;15.20;;;;;;;9.66;62.57;100202.69;1595164;88;21126;-75
2021/10/15 08:25:14;;;;;;;25.35;14.25;;;;;;;9.77;62.14;100206.13;1622378;88;21685;-76
2021/10/15 08:27:45;;;;;;;21.52;13.83;;;;;;;9.87;61.11;100204.59;1621315;88;21075;-76
2021/10/15 08:30:13;;;;;;;23.77;13.08;;;;;;;9.95;60.47;100197.03;1622472;88;21109;-75
2021/10/15 08:32:42;;;;;;;22.22;13.72;;;;;;;10.04;60.21;100194.42;1622169;88;21039;-74
2021/10/15 08:35:22;;;;;;;24.52;14.55;;;;;;;10.14;59.54;100196.73;1597310;88;21385;-74
2021/10/15 08:37:53;;;;;;;20.60;12.78;;;;;;;10.23;59.10;100192.20;1622558;86;21080;-76
2021/10/15 08:40:24;;;;;;;22.13;13.03;;;;;;;10.31;58.55;100188.75;1618761;88;21098;-76
2021/10/15 08:42:55;;;;;;;23.42;12.70;;;;;;;10.40;58.11;100188.05;1622665;88;21090;-76
2021/10/15 08:45:30;;;;;;;24.23;14.18;;;;;;;10.47;57.70;100187.93;1594738;88;21123;-75
2021/10/15 08:48:00;;;;;;;19.67;12.30;;;;;;;10.53;57.04;100184.53;1622599;88;21064;-75
2021/10/15 08:50:33;;;;;;;19.82;12.07;;;;;;;10.59;56.33;100182.52;1615143;88;21051;-74
2021/10/15 08:53:07;;;;;;;17.35;11.50;;;;;;;10.66;56.48;100182.11;1611289;87;21095;-73
2021/10/15 08:55:54;;;;;;;18.15;11.05;;;;;;;10.78;56.27;100176.09;1604038;89;21067;-76
2021/10/15 08:58:42;;;;;;;20.80;10.65;;;;;;;10.89;55.78;100175.32;1584666;89;21154;-75
2021/10/15 09:01:14;;;;;;;16.97;10.68;;;;;;;10.99;55.30;100174.30;1603776;88;21595;-76
2021/10/15 09:03:50;;;;;;;19.60;11.97;;;;;;;11.09;55.05;100179.60;1606174;89;21148;-75
2021/10/15 09:06:34;;;;;;;23.02;12.45;;;;;;;11.19;54.78;100175.84;1649792;86;21059;-75
2021/10/15 09:09:15;;;;;;;17.05;10.98;;;;;;;11.28;54.42;100175.34;1605930;87;21094;-74
2021/10/15 09:11:51;;;;;;;17.37;11.10;;;;;;;11.37;54.13;100170.48;1630688;87;21100;-77
2021/10/15 09:14:41;;;;;;;15.75;10.43;;;;;;;11.46;53.72;100170.56;1647555;86;27144;-75
2021/10/15 09:17:35;;;;;;;14.75;9.90;;;;;;;11.56;52.74;100172.55;1643590;86;21032;-76
2021/10/15 09:20:11;;;;;;;18.20;10.35;;;;;;;11.63;52.11;100172.67;1644084;85;21043;-77
2021/10/15 09:22:41;;;;;;;14.63;9.40;;;;;;;11.70;51.95;100170.30;1649456;87;21520;-75
2021/10/15 09:25:14;;;;;;;14.85;9.10;;;;;;;11.77;52.04;100166.53;1627984;87;21520;-75
2021/10/15 09:27:49;;;;;;;15.47;10.50;;;;;;;11.89;51.99;100170.11;1649867;87;21000;-77
2021/10/15 09:30:26;;;;;;;16.90;10.10;;;;;;;12.02;51.73;100170.38;1645650;85;20992;-77
2021/10/15 09:33:03;;;;;;;13.90;8.80;;;;;;;12.13;50.80;100167.63;1640848;86;21024;-78
2021/10/15 09:35:32;;;;;;;19.82;8.48;;;;;;;12.21;50.64;100170.77;1646306;87;21080;-76
2021/10/15 09:38:10;;;;;;;17.25;9.98;;;;;;;12.29;49.12;100175.53;1649455;87;21016;-73
2021/10/15 09:40:53;;;;;;;14.98;7.75;;;;;;;12.28;48.59;100167.01;1634922;86;21039;-74
2021/10/15 09:43:42;;;;;;;26.42;8.88;;;;;;;12.30;48.79;100153.66;1644576;87;21071;-74
2021/10/15 09:46:28;;;;;;;14.25;8.40;;;;;;;12.35;48.41;100146.63;1626404;87;21056;-72
2021/10/15 09:49:12;;;;;;;16.52;7.75;;;;;;;12.41;48.01;100141.23;1638928;85;21039;-75
2021/10/15 09:51:56;;;;;;;12.18;6.70;;;;;;;12.46;47.59;100140.83;1643548;87;21020;-75
2021/10/15 09:54:41;;;;;;;9.78;5.70;;;;;;;12.48;47.05;100139.95;1646687;86;21039;-77
2021/10/15 09:57:12;;;;;;;10.98;5.65;;;;;;;12.52;47.29;100128.52;1651751;85;21023;-76
2021/10/15 09:59:44;;;;;;;9.70;5.78;;;;;;;12.61;46.20;100130.74;1624990;86;21091;-75
2021/10/15 10:02:24;;;;;;;8.88;5.58;;;;;;;12.64;45.65;100125.16;1647674;86;21016;-77
2021/10/15 10:05:00;;;;;;;9.78;6.05;;;;;;;12.65;45.04;100127.60;1624268;86;21004;-77
2021/10/15 10:07:29;;;;;;;14.07;7.80;;;;;;;12.66;45.26;100120.09;1612420;87;21048;-74
2021/10/15 10:09:58;;;;;;;14.38;7.15;;;;;;;12.68;45.14;100121.98;1647167;85;21173;-75
2021/10/15 10:12:44;;;;;;;13.18;6.95;;;;;;;12.72;45.29;100113.88;1638993;87;21060;-76
2021/10/15 10:15:18;;;;;;;9.60;6.42;;;;;;;12.76;45.44;100113.49;1643959;86;21095;-75
2021/10/15 10:17:59;;;;;;;11.55;6.72;;;;;;;12.84;45.65;100109.11;1647370;87;21087;-76
2021/10/15 10:20:29;;;;;;;11.70;7.72;;;;;;;12.95;46.06;100113.78;1627235;86;21016;-77
2021/10/15 10:23:38;;;;;;;18.73;7.53;;;;;;;13.06;45.28;100105.98;1642401;86;20993;-72
2021/10/15 10:26:09;;;;;;;9.58;6.40;;;;;;;13.09;45.06;100108.09;1646147;86;21095;-75
2021/10/15 10:28:44;;;;;;;12.85;7.72;;;;;;;13.09;44.77;100103.39;1646668;84;21678;-74
2021/10/15 10:31:33;;;;;;;10.72;7.37;;;;;;;13.11;45.17;100114.13;1644227;86;20997;-76
2021/10/15 10:34:40;;;;;;;16.07;7.00;;;;;;;13.14;44.66;100100.47;1638832;86;21015;-76
2021/10/15 10:37:15;;;;;;;13.62;7.30;;;;;;;13.15;44.76;100102.67;1603913;87;21582;-76
2021/10/15 10:39:44;;;;;;;14.95;7.03;;;;;;;13.17;44.50;100094.05;1647572;86;21087;-78
2021/10/15 10:42:18;;;;;;;10.70;7.22;;;;;;;13.19;44.54;100095.34;1616934;88;21053;-76
2021/10/15 10:45:03;;;;;;;22.52;8.20;;;;;;;13.24;44.60;100086.88;1627432;86;21064;-74
2021/10/15 10:47:31;;;;;;;10.45;5.97;;;;;;;13.33;44.48;100077.77;1642774;86;21055;-77
2021/10/15 10:50:13;;;;;;;13.65;6.97;;;;;;;13.42;43.99;100093.00;1645067;85;21044;-77
2021/10/15 10:52:53;;;;;;;10.25;5.28;;;;;;;13.48;43.29;100086.14;1645987;85;21071;-75
2021/10/15 10:55:41;;;;;;;8.03;5.37;;;;;;;13.50;43.57;100089.41;1625090;86;21044;-76
2021/10/15 10:58:36;;;;;;;7.22;5.58;;;;;;;13.57;43.07;100084.80;1641086;87;21520;-78
2021/10/15 11:01:19;;;;;;;8.13;5.80;;;;;;;13.61;42.52;100076.89;1646291;86;21068;-76
2021/10/15 11:03:54;;;;;;;10.00;6.00;;;;;;;13.57;42.15;100074.55;1648986;86;21048;-76
2021/10/15 11:06:45;;;;;;;8.28;5.15;;;;;;;13.56;42.43;100077.05;1647198;84;21039;-74
2021/10/15 11:09:38;;;;;;;9.65;5.28;;;;;;;13.61;42.35;100074.11;1622362;86;21052;-76
2021/10/15 11:12:15;;;;;;;12.37;5.87;;;;;;;13.69;42.83;100071.67;1646443;87;21561;-76
2021/10/15 11:15:06;;;;;;;8.60;4.90;;;;;;;13.82;42.72;100069.85;1647664;85;21485;-75
2021/10/15 11:17:49;;;;;;;8.55;5.20;;;;;;;13.91;42.18;100059.58;1635845;86;21055;-76
2021/10/15 11:20:28;;;;;;;;;;;;;;;13.95;41.89;100062.51;1649368;86;21489;-75
2021/10/15 11:23:18;;;;;;;9.55;5.65;;;;;;;13.97;41.98;100065.77;1640857;85;20150;-76
2021/10/15 11:25:49;;;;;;;15.98;6.20;;;;;;;13.99;41.78;100052.38;1646810;86;21135;-76
2021/10/15 11:28:21;;;;;;;13.15;6.00;;;;;;;14.06;41.45;100058.80;1639454;86;21536;-75
2021/10/15 11:30:50;;;;;;;9.83;5.95;;;;;;;14.07;40.77;100060.44;1605131;87;21068;-77
2021/10/15 11:33:21;;;;;;;12.18;6.03;;;;;;;13.99;40.88;100052.38;1647721;87;21091;-75
2021/10/15 11:35:51;;;;;;;11.68;6.03;;;;;;;13.95;41.14;100050.05;1604877;87;21516;-75
2021/10/15 11:38:31;;;;;;;9.58;5.60;;;;;;;13.95;41.27;100045.33;1644767;85;21484;-76
2021/10/15 11:41:06;;;;;;;16.97;6.95;;;;;;;13.98;41.17;100044.66;1637589;85;21048;-74
2021/10/15 11:43:47;;;;;;;12.13;6.03;;;;;;;13.97;41.26;100040.24;1615683;88;20991;-76
2021/10/15 11:46:18;;;;;;;15.80;6.37;;;;;;;13.96;40.75;100032.27;1644505;86;21028;-74
2021/10/15 11:49:00;;;;;;;8.78;5.17;;;;;;;13.92;41.08;100027.16;1647417;86;21608;-73
2021/10/15 11:51:32;;;;;;;10.30;5.37;;;;;;;13.96;40.93;100025.34;1641219;87;21079;-77
2021/10/15 11:54:09;;;;;;;11.85;6.33;;;;;;;14.02;40.65;100034.30;1658462;84;21756;-77
2021/10/15 11:56:44;;;;;;;10.70;5.28;;;;;;;14.04;40.36;100027.86;1669501;85;22162;-77
2021/10/15 11:59:14;;;;;;;12.95;5.60;;;;;;;14.07;40.56;100029.40;1667008;85;20999;-76
2021/10/15 12:01:49;;;;;;;11.80;6.70;;;;;;;14.12;40.64;100020.88;1668675;85;21076;-77
2021/10/15 12:04:25;;;;;;;10.20;5.90;;;;;;;14.19;40.26;100031.44;1652172;85;21471;-74
2021/10/15 12:06:58;;;;;;;10.63;6.50;;;;;;;14.19;40.07;100024.52;1665436;85;21047;-74
2021/10/15 12:09:25;;;;;;;8.58;5.40;;;;;;;14.18;40.20;100033.16;1671487;85;22107;-75